sensor_id;sensor_type;location;lat;lon;timestamp;P1;durP1;ratioP1;P2;durP2;ratioP2
46717;SDS011;32448;44.960;-0.698;2022-11-15T00:01:47;12.25;;;3.97;;
46717;SDS011;32448;44.960;-0.698;2022-11-15T00:04:33;14.35;;;4.47;;
46717;SDS011;32448;44.960;-0.698;2022-11-15T00:07:18;10.23;;;3.60;;
46717;SDS011;32448;44.960;-0.698;2022-11-15T00:10:24;11.75;;;3.58;;
46717;SDS011;32448;44.960;-0.698;2022-11-15T00:13:11;17.95;;;4.63;;
46717;SDS011;32448;44.960;-0.698;2022-11-15T00:15:59;13.85;;;4.32;;
46717;SDS011;32448;44.960;-0.698;2022-11-15T00:18:46;10.60;;;3.92;;
46717;SDS011;32448;44.960;-0.698;2022-11-15T00:21:35;12.88;;;3.97;;
46717;SDS011;32448;44.960;-0.698;2022-11-15T00:24:20;8.68;;;3.45;;
46717;SDS011;32448;44.960;-0.698;2022-11-15T00:27:06;12.50;;;4.03;;
46717;SDS011;32448;44.960;-0.698;2022-11-15T00:29:52;8.35;;;3.67;;
46717;SDS011;32448;44.960;-0.698;2022-11-15T00:32:38;15.63;;;4.18;;
46717;SDS011;32448;44.960;-0.698;2022-11-15T00:35:24;14.32;;;4.15;;
46717;SDS011;32448;44.960;-0.698;2022-11-15T00:38:11;12.35;;;3.60;;
46717;SDS011;32448;44.960;-0.698;2022-11-15T00:40:57;15.90;;;3.50;;
46717;SDS011;32448;44.960;-0.698;2022-11-15T00:43:43;13.68;;;3.40;;
46717;SDS011;32448;44.960;-0.698;2022-11-15T00:46:29;16.92;;;4.32;;
46717;SDS011;32448;44.960;-0.698;2022-11-15T00:49:15;11.75;;;3.28;;
46717;SDS011;32448;44.960;-0.698;2022-11-15T00:52:01;11.75;;;2.95;;
46717;SDS011;32448;44.960;-0.698;2022-11-15T00:54:47;15.02;;;3.03;;
46717;SDS011;32448;44.960;-0.698;2022-11-15T00:57:33;7.57;;;3.13;;
46717;SDS011;32448;44.960;-0.698;2022-11-15T01:00:19;9.77;;;3.65;;
46717;SDS011;32448;44.960;-0.698;2022-11-15T01:03:05;16.15;;;3.80;;
46717;SDS011;32448;44.960;-0.698;2022-11-15T01:05:51;17.20;;;3.45;;
46717;SDS011;32448;44.960;-0.698;2022-11-15T01:08:36;12.43;;;4.05;;
46717;SDS011;32448;44.960;-0.698;2022-11-15T01:11:24;14.02;;;3.45;;
46717;SDS011;32448;44.960;-0.698;2022-11-15T01:14:10;7.90;;;2.80;;
46717;SDS011;32448;44.960;-0.698;2022-11-15T01:16:56;9.60;;;3.20;;
46717;SDS011;32448;44.960;-0.698;2022-11-15T01:19:41;9.68;;;3.10;;
46717;SDS011;32448;44.960;-0.698;2022-11-15T01:22:27;11.23;;;3.50;;
46717;SDS011;32448;44.960;-0.698;2022-11-15T01:25:13;8.13;;;2.80;;
46717;SDS011;32448;44.960;-0.698;2022-11-15T01:27:59;9.88;;;2.88;;
46717;SDS011;32448;44.960;-0.698;2022-11-15T01:30:44;12.15;;;3.08;;
46717;SDS011;32448;44.960;-0.698;2022-11-15T01:33:30;10.70;;;3.38;;
46717;SDS011;32448;44.960;-0.698;2022-11-15T01:36:18;12.02;;;2.80;;
46717;SDS011;32448;44.960;-0.698;2022-11-15T01:39:07;11.88;;;2.80;;
46717;SDS011;32448;44.960;-0.698;2022-11-15T01:41:53;10.75;;;3.10;;
46717;SDS011;32448;44.960;-0.698;2022-11-15T01:47:31;11.75;;;3.13;;
46717;SDS011;32448;44.960;-0.698;2022-11-15T01:50:22;6.88;;;2.75;;
46717;SDS011;32448;44.960;-0.698;2022-11-15T01:53:13;8.73;;;2.78;;
46717;SDS011;32448;44.960;-0.698;2022-11-15T01:56:02;9.88;;;2.90;;
46717;SDS011;32448;44.960;-0.698;2022-11-15T01:58:52;8.50;;;2.45;;
46717;SDS011;32448;44.960;-0.698;2022-11-15T02:01:41;10.77;;;2.83;;
46717;SDS011;32448;44.960;-0.698;2022-11-15T02:04:49;8.45;;;2.72;;
46717;SDS011;32448;44.960;-0.698;2022-11-15T02:07:34;14.75;;;2.78;;
46717;SDS011;32448;44.960;-0.698;2022-11-15T02:10:21;7.93;;;2.15;;
46717;SDS011;32448;44.960;-0.698;2022-11-15T02:13:09;12.57;;;3.03;;
46717;SDS011;32448;44.960;-0.698;2022-11-15T02:16:02;11.15;;;2.42;;
46717;SDS011;32448;44.960;-0.698;2022-11-15T02:18:57;9.32;;;2.42;;
46717;SDS011;32448;44.960;-0.698;2022-11-15T02:30:59;9.82;;;2.78;;
46717;SDS011;32448;44.960;-0.698;2022-11-15T02:34:04;8.05;;;2.45;;
46717;SDS011;32448;44.960;-0.698;2022-11-15T02:37:03;6.55;;;2.35;;
46717;SDS011;32448;44.960;-0.698;2022-11-15T02:40:18;11.68;;;2.20;;
46717;SDS011;32448;44.960;-0.698;2022-11-15T02:43:19;9.57;;;2.00;;
46717;SDS011;32448;44.960;-0.698;2022-11-15T02:46:37;10.05;;;2.15;;
46717;SDS011;32448;44.960;-0.698;2022-11-15T02:49:50;10.38;;;2.00;;
46717;SDS011;32448;44.960;-0.698;2022-11-15T02:52:39;10.38;;;2.15;;
46717;SDS011;32448;44.960;-0.698;2022-11-15T02:55:32;8.63;;;2.13;;
46717;SDS011;32448;44.960;-0.698;2022-11-15T03:07:43;6.10;;;1.77;;
46717;SDS011;32448;44.960;-0.698;2022-11-15T03:11:07;8.38;;;2.35;;
46717;SDS011;32448;44.960;-0.698;2022-11-15T03:13:56;8.35;;;2.00;;
46717;SDS011;32448;44.960;-0.698;2022-11-15T03:19:59;7.88;;;1.95;;
46717;SDS011;32448;44.960;-0.698;2022-11-15T03:22:49;6.82;;;2.33;;
46717;SDS011;32448;44.960;-0.698;2022-11-15T03:25:41;14.27;;;2.50;;
46717;SDS011;32448;44.960;-0.698;2022-11-15T03:28:45;7.33;;;1.90;;
46717;SDS011;32448;44.960;-0.698;2022-11-15T03:31:37;5.72;;;2.00;;
46717;SDS011;32448;44.960;-0.698;2022-11-15T03:40:42;9.30;;;2.45;;
46717;SDS011;32448;44.960;-0.698;2022-11-15T03:43:39;4.80;;;2.00;;
46717;SDS011;32448;44.960;-0.698;2022-11-15T03:46:45;9.70;;;2.00;;
46717;SDS011;32448;44.960;-0.698;2022-11-15T03:49:36;4.43;;;2.03;;
46717;SDS011;32448;44.960;-0.698;2022-11-15T03:52:30;4.20;;;1.75;;
46717;SDS011;32448;44.960;-0.698;2022-11-15T03:55:19;5.40;;;1.70;;
46717;SDS011;32448;44.960;-0.698;2022-11-15T03:58:06;7.10;;;2.10;;
46717;SDS011;32448;44.960;-0.698;2022-11-15T04:00:52;9.07;;;1.90;;
46717;SDS011;32448;44.960;-0.698;2022-11-15T04:03:38;5.22;;;2.17;;
46717;SDS011;32448;44.960;-0.698;2022-11-15T04:06:24;8.88;;;2.25;;
46717;SDS011;32448;44.960;-0.698;2022-11-15T04:09:10;8.63;;;2.30;;
46717;SDS011;32448;44.960;-0.698;2022-11-15T04:11:56;9.32;;;2.50;;
46717;SDS011;32448;44.960;-0.698;2022-11-15T04:14:42;8.93;;;2.20;;
46717;SDS011;32448;44.960;-0.698;2022-11-15T04:17:49;7.35;;;2.45;;
46717;SDS011;32448;44.960;-0.698;2022-11-15T04:20:37;6.15;;;2.20;;
46717;SDS011;32448;44.960;-0.698;2022-11-15T04:23:42;7.78;;;1.80;;
46717;SDS011;32448;44.960;-0.698;2022-11-15T04:26:50;9.90;;;2.60;;
46717;SDS011;32448;44.960;-0.698;2022-11-15T04:29:37;8.30;;;2.45;;
46717;SDS011;32448;44.960;-0.698;2022-11-15T04:32:23;6.53;;;2.05;;
46717;SDS011;32448;44.960;-0.698;2022-11-15T04:35:09;11.93;;;1.98;;
46717;SDS011;32448;44.960;-0.698;2022-11-15T04:37:55;7.63;;;2.28;;
46717;SDS011;32448;44.960;-0.698;2022-11-15T04:40:42;5.25;;;2.03;;
46717;SDS011;32448;44.960;-0.698;2022-11-15T04:43:28;7.25;;;2.20;;
46717;SDS011;32448;44.960;-0.698;2022-11-15T04:46:15;7.72;;;1.92;;
46717;SDS011;32448;44.960;-0.698;2022-11-15T04:49:01;4.63;;;2.03;;
46717;SDS011;32448;44.960;-0.698;2022-11-15T04:51:47;7.38;;;2.05;;
46717;SDS011;32448;44.960;-0.698;2022-11-15T04:54:33;4.88;;;2.28;;
46717;SDS011;32448;44.960;-0.698;2022-11-15T04:57:19;8.27;;;2.22;;
46717;SDS011;32448;44.960;-0.698;2022-11-15T05:00:06;6.43;;;2.67;;
46717;SDS011;32448;44.960;-0.698;2022-11-15T05:02:54;7.90;;;2.70;;
46717;SDS011;32448;44.960;-0.698;2022-11-15T05:05:59;4.88;;;2.28;;
46717;SDS011;32448;44.960;-0.698;2022-11-15T05:08:45;3.15;;;2.03;;
46717;SDS011;32448;44.960;-0.698;2022-11-15T05:11:31;7.22;;;2.20;;
46717;SDS011;32448;44.960;-0.698;2022-11-15T05:14:18;8.80;;;2.42;;
46717;SDS011;32448;44.960;-0.698;2022-11-15T05:17:04;7.75;;;2.28;;
46717;SDS011;32448;44.960;-0.698;2022-11-15T05:19:50;7.75;;;2.25;;
46717;SDS011;32448;44.960;-0.698;2022-11-15T05:22:37;4.18;;;2.50;;
46717;SDS011;32448;44.960;-0.698;2022-11-15T05:25:23;5.95;;;2.10;;
46717;SDS011;32448;44.960;-0.698;2022-11-15T05:28:09;6.32;;;2.25;;
46717;SDS011;32448;44.960;-0.698;2022-11-15T05:31:06;6.40;;;2.33;;
46717;SDS011;32448;44.960;-0.698;2022-11-15T05:33:55;6.43;;;2.88;;
46717;SDS011;32448;44.960;-0.698;2022-11-15T05:36:44;7.82;;;2.60;;
46717;SDS011;32448;44.960;-0.698;2022-11-15T05:39:30;10.43;;;3.10;;
46717;SDS011;32448;44.960;-0.698;2022-11-15T05:42:17;7.07;;;3.00;;
46717;SDS011;32448;44.960;-0.698;2022-11-15T05:45:04;8.55;;;2.78;;
46717;SDS011;32448;44.960;-0.698;2022-11-15T05:47:51;8.25;;;2.70;;
46717;SDS011;32448;44.960;-0.698;2022-11-15T05:50:41;7.20;;;2.72;;
46717;SDS011;32448;44.960;-0.698;2022-11-15T05:53:30;7.57;;;3.00;;
46717;SDS011;32448;44.960;-0.698;2022-11-15T05:56:16;5.82;;;2.97;;
46717;SDS011;32448;44.960;-0.698;2022-11-15T05:59:02;8.48;;;2.92;;
46717;SDS011;32448;44.960;-0.698;2022-11-15T06:01:49;8.57;;;3.10;;
46717;SDS011;32448;44.960;-0.698;2022-11-15T06:04:35;7.75;;;2.97;;
46717;SDS011;32448;44.960;-0.698;2022-11-15T06:07:21;9.35;;;2.85;;
46717;SDS011;32448;44.960;-0.698;2022-11-15T06:10:08;10.15;;;3.05;;
46717;SDS011;32448;44.960;-0.698;2022-11-15T06:13:00;9.32;;;2.80;;
46717;SDS011;32448;44.960;-0.698;2022-11-15T06:15:48;9.32;;;3.30;;
46717;SDS011;32448;44.960;-0.698;2022-11-15T06:18:34;9.27;;;3.10;;
46717;SDS011;32448;44.960;-0.698;2022-11-15T06:21:21;11.27;;;4.07;;
46717;SDS011;32448;44.960;-0.698;2022-11-15T06:24:07;8.55;;;3.10;;
46717;SDS011;32448;44.960;-0.698;2022-11-15T06:26:53;13.05;;;4.07;;
46717;SDS011;32448;44.960;-0.698;2022-11-15T06:29:39;9.20;;;3.33;;
46717;SDS011;32448;44.960;-0.698;2022-11-15T06:32:25;8.40;;;3.13;;
46717;SDS011;32448;44.960;-0.698;2022-11-15T06:35:11;7.68;;;4.13;;
46717;SDS011;32448;44.960;-0.698;2022-11-15T06:38:08;10.55;;;3.00;;
46717;SDS011;32448;44.960;-0.698;2022-11-15T06:41:01;8.13;;;3.40;;
46717;SDS011;32448;44.960;-0.698;2022-11-15T06:43:48;6.68;;;3.40;;
46717;SDS011;32448;44.960;-0.698;2022-11-15T06:46:34;7.47;;;3.40;;
46717;SDS011;32448;44.960;-0.698;2022-11-15T06:49:19;10.65;;;3.55;;
46717;SDS011;32448;44.960;-0.698;2022-11-15T06:52:05;7.50;;;3.63;;
46717;SDS011;32448;44.960;-0.698;2022-11-15T06:54:51;7.03;;;3.30;;
46717;SDS011;32448;44.960;-0.698;2022-11-15T06:57:37;5.25;;;2.63;;
46717;SDS011;32448;44.960;-0.698;2022-11-15T07:00:23;8.35;;;3.40;;
46717;SDS011;32448;44.960;-0.698;2022-11-15T07:03:09;9.63;;;3.17;;
46717;SDS011;32448;44.960;-0.698;2022-11-15T07:05:55;7.18;;;3.22;;
46717;SDS011;32448;44.960;-0.698;2022-11-15T07:08:50;8.18;;;3.15;;
46717;SDS011;32448;44.960;-0.698;2022-11-15T07:11:36;11.38;;;3.45;;
46717;SDS011;32448;44.960;-0.698;2022-11-15T07:14:22;11.25;;;3.70;;
46717;SDS011;32448;44.960;-0.698;2022-11-15T07:17:08;5.90;;;3.42;;
46717;SDS011;32448;44.960;-0.698;2022-11-15T07:19:54;7.57;;;3.35;;
46717;SDS011;32448;44.960;-0.698;2022-11-15T07:22:40;9.63;;;4.43;;
46717;SDS011;32448;44.960;-0.698;2022-11-15T07:25:27;10.30;;;3.63;;
46717;SDS011;32448;44.960;-0.698;2022-11-15T07:28:13;9.70;;;3.88;;
46717;SDS011;32448;44.960;-0.698;2022-11-15T07:31:08;9.57;;;3.45;;
46717;SDS011;32448;44.960;-0.698;2022-11-15T07:33:54;4.93;;;3.33;;
46717;SDS011;32448;44.960;-0.698;2022-11-15T07:36:40;8.95;;;3.47;;
46717;SDS011;32448;44.960;-0.698;2022-11-15T07:39:25;5.85;;;3.85;;
46717;SDS011;32448;44.960;-0.698;2022-11-15T07:42:10;4.80;;;3.65;;
46717;SDS011;32448;44.960;-0.698;2022-11-15T07:45:14;5.95;;;3.80;;
46717;SDS011;32448;44.960;-0.698;2022-11-15T07:48:00;8.88;;;3.58;;
46717;SDS011;32448;44.960;-0.698;2022-11-15T07:50:46;10.65;;;3.65;;
46717;SDS011;32448;44.960;-0.698;2022-11-15T07:53:32;7.72;;;3.92;;
46717;SDS011;32448;44.960;-0.698;2022-11-15T07:56:19;8.85;;;3.63;;
46717;SDS011;32448;44.960;-0.698;2022-11-15T07:59:06;9.73;;;3.75;;
46717;SDS011;32448;44.960;-0.698;2022-11-15T08:01:51;8.15;;;3.95;;
46717;SDS011;32448;44.960;-0.698;2022-11-15T08:04:37;7.05;;;3.75;;
46717;SDS011;32448;44.960;-0.698;2022-11-15T08:07:23;8.07;;;3.88;;
46717;SDS011;32448;44.960;-0.698;2022-11-15T08:10:09;7.90;;;3.70;;
46717;SDS011;32448;44.960;-0.698;2022-11-15T08:12:58;5.95;;;3.80;;
46717;SDS011;32448;44.960;-0.698;2022-11-15T08:15:51;10.93;;;3.95;;
46717;SDS011;32448;44.960;-0.698;2022-11-15T08:18:41;7.45;;;3.75;;
46717;SDS011;32448;44.960;-0.698;2022-11-15T08:21:27;6.93;;;4.05;;
46717;SDS011;32448;44.960;-0.698;2022-11-15T08:24:13;8.50;;;4.28;;
46717;SDS011;32448;44.960;-0.698;2022-11-15T08:26:59;7.45;;;3.45;;
46717;SDS011;32448;44.960;-0.698;2022-11-15T08:29:45;5.43;;;3.17;;
46717;SDS011;32448;44.960;-0.698;2022-11-15T08:32:33;8.60;;;4.30;;
46717;SDS011;32448;44.960;-0.698;2022-11-15T08:35:20;7.65;;;3.92;;
46717;SDS011;32448;44.960;-0.698;2022-11-15T08:38:13;6.95;;;3.78;;
46717;SDS011;32448;44.960;-0.698;2022-11-15T08:41:03;6.10;;;3.90;;
46717;SDS011;32448;44.960;-0.698;2022-11-15T08:43:49;9.18;;;4.20;;
46717;SDS011;32448;44.960;-0.698;2022-11-15T08:46:35;5.07;;;3.25;;
46717;SDS011;32448;44.960;-0.698;2022-11-15T08:49:21;6.53;;;3.72;;
46717;SDS011;32448;44.960;-0.698;2022-11-15T08:52:06;8.25;;;4.38;;
46717;SDS011;32448;44.960;-0.698;2022-11-15T08:54:52;6.80;;;3.80;;
46717;SDS011;32448;44.960;-0.698;2022-11-15T08:57:38;5.75;;;3.30;;
46717;SDS011;32448;44.960;-0.698;2022-11-15T09:00:24;13.55;;;3.85;;
46717;SDS011;32448;44.960;-0.698;2022-11-15T09:03:10;6.72;;;3.22;;
46717;SDS011;32448;44.960;-0.698;2022-11-15T09:06:00;8.30;;;3.67;;
46717;SDS011;32448;44.960;-0.698;2022-11-15T09:08:46;7.20;;;3.63;;
46717;SDS011;32448;44.960;-0.698;2022-11-15T09:11:36;7.50;;;3.90;;
46717;SDS011;32448;44.960;-0.698;2022-11-15T09:14:21;6.22;;;4.10;;
46717;SDS011;32448;44.960;-0.698;2022-11-15T09:17:07;7.88;;;4.00;;
46717;SDS011;32448;44.960;-0.698;2022-11-15T09:19:53;5.82;;;3.35;;
46717;SDS011;32448;44.960;-0.698;2022-11-15T09:22:39;9.40;;;3.70;;
46717;SDS011;32448;44.960;-0.698;2022-11-15T09:25:25;6.43;;;3.35;;
46717;SDS011;32448;44.960;-0.698;2022-11-15T09:28:11;8.23;;;3.80;;
46717;SDS011;32448;44.960;-0.698;2022-11-15T09:30:58;6.05;;;3.60;;
46717;SDS011;32448;44.960;-0.698;2022-11-15T09:33:45;6.78;;;3.80;;
46717;SDS011;32448;44.960;-0.698;2022-11-15T09:36:31;8.63;;;3.58;;
46717;SDS011;32448;44.960;-0.698;2022-11-15T09:39:17;8.73;;;3.67;;
46717;SDS011;32448;44.960;-0.698;2022-11-15T09:48:06;7.20;;;3.63;;
46717;SDS011;32448;44.960;-0.698;2022-11-15T09:51:08;6.90;;;4.10;;
46717;SDS011;32448;44.960;-0.698;2022-11-15T09:53:47;6.63;;;3.60;;
46717;SDS011;32448;44.960;-0.698;2022-11-15T09:56:41;10.68;;;4.18;;
46717;SDS011;32448;44.960;-0.698;2022-11-15T10:04:33;7.22;;;3.95;;
46717;SDS011;32448;44.960;-0.698;2022-11-15T10:07:12;6.43;;;3.78;;
46717;SDS011;32448;44.960;-0.698;2022-11-15T10:10:04;5.40;;;4.00;;
46717;SDS011;32448;44.960;-0.698;2022-11-15T10:12:43;7.90;;;4.20;;
46717;SDS011;32448;44.960;-0.698;2022-11-15T10:15:16;11.98;;;4.20;;
46717;SDS011;32448;44.960;-0.698;2022-11-15T10:18:00;9.90;;;4.28;;
46717;SDS011;32448;44.960;-0.698;2022-11-15T10:23:24;11.32;;;4.50;;
46717;SDS011;32448;44.960;-0.698;2022-11-15T10:25:51;9.20;;;4.60;;
46717;SDS011;32448;44.960;-0.698;2022-11-15T10:30:54;5.57;;;4.03;;
46717;SDS011;32448;44.960;-0.698;2022-11-15T10:33:33;8.25;;;4.63;;
46717;SDS011;32448;44.960;-0.698;2022-11-15T10:46:39;6.35;;;3.92;;
46717;SDS011;32448;44.960;-0.698;2022-11-15T10:49:14;9.13;;;4.20;;
46717;SDS011;32448;44.960;-0.698;2022-11-15T10:51:52;9.45;;;4.00;;
46717;SDS011;32448;44.960;-0.698;2022-11-15T10:54:27;6.28;;;3.65;;
46717;SDS011;32448;44.960;-0.698;2022-11-15T10:57:00;11.32;;;3.80;;
46717;SDS011;32448;44.960;-0.698;2022-11-15T10:59:35;7.78;;;3.90;;
46717;SDS011;32448;44.960;-0.698;2022-11-15T11:04:59;10.38;;;4.55;;
46717;SDS011;32448;44.960;-0.698;2022-11-15T11:07:31;8.82;;;4.00;;
46717;SDS011;32448;44.960;-0.698;2022-11-15T11:10:05;8.35;;;4.35;;
46717;SDS011;32448;44.960;-0.698;2022-11-15T11:15:50;17.98;;;4.10;;
46717;SDS011;32448;44.960;-0.698;2022-11-15T11:18:38;9.82;;;4.07;;
46717;SDS011;32448;44.960;-0.698;2022-11-15T11:21:18;13.82;;;4.80;;
46717;SDS011;32448;44.960;-0.698;2022-11-15T11:24:19;7.22;;;4.18;;
46717;SDS011;32448;44.960;-0.698;2022-11-15T11:33:00;8.57;;;3.78;;
46717;SDS011;32448;44.960;-0.698;2022-11-15T11:38:51;8.20;;;4.10;;
46717;SDS011;32448;44.960;-0.698;2022-11-15T11:52:54;6.20;;;3.80;;
46717;SDS011;32448;44.960;-0.698;2022-11-15T11:55:53;5.18;;;3.92;;
46717;SDS011;32448;44.960;-0.698;2022-11-15T11:58:26;7.60;;;4.20;;
46717;SDS011;32448;44.960;-0.698;2022-11-15T12:03:35;6.13;;;3.97;;
46717;SDS011;32448;44.960;-0.698;2022-11-15T12:06:19;12.35;;;4.50;;
46717;SDS011;32448;44.960;-0.698;2022-11-15T12:08:54;8.93;;;4.40;;
46717;SDS011;32448;44.960;-0.698;2022-11-15T12:15:12;8.50;;;4.70;;
46717;SDS011;32448;44.960;-0.698;2022-11-15T12:17:46;5.20;;;3.97;;
46717;SDS011;32448;44.960;-0.698;2022-11-15T12:20:16;8.50;;;4.47;;
46717;SDS011;32448;44.960;-0.698;2022-11-15T12:23:04;8.95;;;4.03;;
46717;SDS011;32448;44.960;-0.698;2022-11-15T12:30:53;7.57;;;3.80;;
46717;SDS011;32448;44.960;-0.698;2022-11-15T12:33:31;8.70;;;4.18;;
46717;SDS011;32448;44.960;-0.698;2022-11-15T12:36:05;8.52;;;3.88;;
46717;SDS011;32448;44.960;-0.698;2022-11-15T12:41:28;6.85;;;3.58;;
46717;SDS011;32448;44.960;-0.698;2022-11-15T12:43:57;10.50;;;3.08;;
46717;SDS011;32448;44.960;-0.698;2022-11-15T12:48:57;7.93;;;3.30;;
46717;SDS011;32448;44.960;-0.698;2022-11-15T12:59:49;14.38;;;3.60;;
46717;SDS011;32448;44.960;-0.698;2022-11-15T13:02:31;8.60;;;3.25;;
46717;SDS011;32448;44.960;-0.698;2022-11-15T13:20:28;8.43;;;2.13;;
46717;SDS011;32448;44.960;-0.698;2022-11-15T13:23:10;8.60;;;2.05;;
46717;SDS011;32448;44.960;-0.698;2022-11-15T13:28:31;7.88;;;1.67;;
46717;SDS011;32448;44.960;-0.698;2022-11-15T13:34:16;10.77;;;1.70;;
46717;SDS011;32448;44.960;-0.698;2022-11-15T13:39:48;8.43;;;1.70;;
46717;SDS011;32448;44.960;-0.698;2022-11-15T13:42:17;17.13;;;2.90;;
46717;SDS011;32448;44.960;-0.698;2022-11-15T13:47:44;12.90;;;2.17;;
46717;SDS011;32448;44.960;-0.698;2022-11-15T13:50:15;8.15;;;1.13;;
46717;SDS011;32448;44.960;-0.698;2022-11-15T13:52:42;5.93;;;1.10;;
46717;SDS011;32448;44.960;-0.698;2022-11-15T13:55:13;9.50;;;1.50;;
46717;SDS011;32448;44.960;-0.698;2022-11-15T13:57:46;6.15;;;1.30;;
46717;SDS011;32448;44.960;-0.698;2022-11-15T14:02:53;4.18;;;1.08;;
46717;SDS011;32448;44.960;-0.698;2022-11-15T14:05:22;3.30;;;0.65;;
46717;SDS011;32448;44.960;-0.698;2022-11-15T14:08:02;4.85;;;1.00;;
46717;SDS011;32448;44.960;-0.698;2022-11-15T14:10:39;4.50;;;1.08;;
46717;SDS011;32448;44.960;-0.698;2022-11-15T14:13:11;12.13;;;1.40;;
46717;SDS011;32448;44.960;-0.698;2022-11-15T14:15:54;5.47;;;1.35;;
46717;SDS011;32448;44.960;-0.698;2022-11-15T14:18:44;3.38;;;0.65;;
46717;SDS011;32448;44.960;-0.698;2022-11-15T14:21:13;2.60;;;0.70;;
46717;SDS011;32448;44.960;-0.698;2022-11-15T14:23:41;6.97;;;0.80;;
46717;SDS011;32448;44.960;-0.698;2022-11-15T14:26:27;5.18;;;0.93;;
46717;SDS011;32448;44.960;-0.698;2022-11-15T14:31:49;2.60;;;0.55;;
46717;SDS011;32448;44.960;-0.698;2022-11-15T14:34:16;2.80;;;0.55;;
46717;SDS011;32448;44.960;-0.698;2022-11-15T14:36:44;5.28;;;0.70;;
46717;SDS011;32448;44.960;-0.698;2022-11-15T14:39:11;6.68;;;0.57;;
46717;SDS011;32448;44.960;-0.698;2022-11-15T14:41:38;5.88;;;1.05;;
46717;SDS011;32448;44.960;-0.698;2022-11-15T14:44:05;6.13;;;1.20;;
46717;SDS011;32448;44.960;-0.698;2022-11-15T14:46:33;4.00;;;1.17;;
46717;SDS011;32448;44.960;-0.698;2022-11-15T14:49:00;4.60;;;1.08;;
46717;SDS011;32448;44.960;-0.698;2022-11-15T14:51:28;4.72;;;0.70;;
46717;SDS011;32448;44.960;-0.698;2022-11-15T14:53:55;6.13;;;1.00;;
46717;SDS011;32448;44.960;-0.698;2022-11-15T14:56:22;5.95;;;0.80;;
46717;SDS011;32448;44.960;-0.698;2022-11-15T14:58:49;7.28;;;1.20;;
46717;SDS011;32448;44.960;-0.698;2022-11-15T15:03:51;4.40;;;1.02;;
46717;SDS011;32448;44.960;-0.698;2022-11-15T15:06:22;7.07;;;1.02;;
46717;SDS011;32448;44.960;-0.698;2022-11-15T15:08:50;3.35;;;0.90;;
46717;SDS011;32448;44.960;-0.698;2022-11-15T15:11:21;5.97;;;0.70;;
46717;SDS011;32448;44.960;-0.698;2022-11-15T15:13:51;4.13;;;0.88;;
46717;SDS011;32448;44.960;-0.698;2022-11-15T15:16:19;6.10;;;1.13;;
46717;SDS011;32448;44.960;-0.698;2022-11-15T15:18:46;11.60;;;1.85;;
46717;SDS011;32448;44.960;-0.698;2022-11-15T15:24:02;23.42;;;12.27;;
46717;SDS011;32448;44.960;-0.698;2022-11-15T15:26:29;17.90;;;6.03;;
46717;SDS011;32448;44.960;-0.698;2022-11-15T15:29:00;19.67;;;6.10;;
46717;SDS011;32448;44.960;-0.698;2022-11-15T15:31:27;12.27;;;3.15;;
46717;SDS011;32448;44.960;-0.698;2022-11-15T15:33:54;8.10;;;2.13;;
46717;SDS011;32448;44.960;-0.698;2022-11-15T15:36:21;7.47;;;1.90;;
46717;SDS011;32448;44.960;-0.698;2022-11-15T15:38:49;7.78;;;1.75;;
46717;SDS011;32448;44.960;-0.698;2022-11-15T15:41:17;9.30;;;1.40;;
46717;SDS011;32448;44.960;-0.698;2022-11-15T15:43:50;5.25;;;1.23;;
46717;SDS011;32448;44.960;-0.698;2022-11-15T15:46:18;7.18;;;1.33;;
46717;SDS011;32448;44.960;-0.698;2022-11-15T15:48:46;11.88;;;1.83;;
46717;SDS011;32448;44.960;-0.698;2022-11-15T15:51:15;8.20;;;1.25;;
46717;SDS011;32448;44.960;-0.698;2022-11-15T15:53:53;10.27;;;1.75;;
46717;SDS011;32448;44.960;-0.698;2022-11-15T15:56:28;15.32;;;1.70;;
46717;SDS011;32448;44.960;-0.698;2022-11-15T15:58:59;11.27;;;1.63;;
46717;SDS011;32448;44.960;-0.698;2022-11-15T16:01:29;14.23;;;1.60;;
46717;SDS011;32448;44.960;-0.698;2022-11-15T16:03:57;9.93;;;1.80;;
46717;SDS011;32448;44.960;-0.698;2022-11-15T16:06:32;7.75;;;1.85;;
46717;SDS011;32448;44.960;-0.698;2022-11-15T16:09:06;4.00;;;1.00;;
46717;SDS011;32448;44.960;-0.698;2022-11-15T16:11:41;7.72;;;2.15;;
46717;SDS011;32448;44.960;-0.698;2022-11-15T16:14:14;11.82;;;1.60;;
46717;SDS011;32448;44.960;-0.698;2022-11-15T16:16:45;9.02;;;1.33;;
46717;SDS011;32448;44.960;-0.698;2022-11-15T16:19:13;14.05;;;1.50;;
46717;SDS011;32448;44.960;-0.698;2022-11-15T16:21:42;16.40;;;2.10;;
46717;SDS011;32448;44.960;-0.698;2022-11-15T16:26:43;6.35;;;1.02;;
46717;SDS011;32448;44.960;-0.698;2022-11-15T16:29:11;8.65;;;1.35;;
46717;SDS011;32448;44.960;-0.698;2022-11-15T16:31:40;19.55;;;2.33;;
46717;SDS011;32448;44.960;-0.698;2022-11-15T16:34:09;12.88;;;2.10;;
46717;SDS011;32448;44.960;-0.698;2022-11-15T16:36:37;13.05;;;1.92;;
46717;SDS011;32448;44.960;-0.698;2022-11-15T16:39:05;11.48;;;2.03;;
46717;SDS011;32448;44.960;-0.698;2022-11-15T16:41:34;9.23;;;1.90;;
46717;SDS011;32448;44.960;-0.698;2022-11-15T16:44:02;13.88;;;1.77;;
46717;SDS011;32448;44.960;-0.698;2022-11-15T16:46:33;10.15;;;1.65;;
46717;SDS011;32448;44.960;-0.698;2022-11-15T16:49:01;9.50;;;2.60;;
46717;SDS011;32448;44.960;-0.698;2022-11-15T16:51:33;9.00;;;2.28;;
46717;SDS011;32448;44.960;-0.698;2022-11-15T16:54:02;8.00;;;1.67;;
46717;SDS011;32448;44.960;-0.698;2022-11-15T16:56:31;8.57;;;2.33;;
46717;SDS011;32448;44.960;-0.698;2022-11-15T16:59:00;8.68;;;1.67;;
46717;SDS011;32448;44.960;-0.698;2022-11-15T17:01:31;13.45;;;2.17;;
46717;SDS011;32448;44.960;-0.698;2022-11-15T17:04:01;10.63;;;1.98;;
46717;SDS011;32448;44.960;-0.698;2022-11-15T17:06:39;24.17;;;2.50;;
46717;SDS011;32448;44.960;-0.698;2022-11-15T17:09:12;17.92;;;4.80;;
46717;SDS011;32448;44.960;-0.698;2022-11-15T17:11:52;32.80;;;9.75;;
46717;SDS011;32448;44.960;-0.698;2022-11-15T17:14:24;27.30;;;8.32;;
46717;SDS011;32448;44.960;-0.698;2022-11-15T17:16:52;24.98;;;9.90;;
46717;SDS011;32448;44.960;-0.698;2022-11-15T17:19:26;27.83;;;15.35;;
46717;SDS011;32448;44.960;-0.698;2022-11-15T17:21:56;35.42;;;17.17;;
46717;SDS011;32448;44.960;-0.698;2022-11-15T17:24:24;26.02;;;13.43;;
46717;SDS011;32448;44.960;-0.698;2022-11-15T17:26:52;18.35;;;10.00;;
46717;SDS011;32448;44.960;-0.698;2022-11-15T17:29:25;26.63;;;13.10;;
46717;SDS011;32448;44.960;-0.698;2022-11-15T17:31:54;28.30;;;14.50;;
46717;SDS011;32448;44.960;-0.698;2022-11-15T17:34:23;23.67;;;13.27;;
46717;SDS011;32448;44.960;-0.698;2022-11-15T17:36:53;17.02;;;8.18;;
46717;SDS011;32448;44.960;-0.698;2022-11-15T17:39:20;14.50;;;4.88;;
46717;SDS011;32448;44.960;-0.698;2022-11-15T17:41:51;20.67;;;6.10;;
46717;SDS011;32448;44.960;-0.698;2022-11-15T17:44:22;94.30;;;34.53;;
46717;SDS011;32448;44.960;-0.698;2022-11-15T17:46:52;73.50;;;25.65;;
46717;SDS011;32448;44.960;-0.698;2022-11-15T17:49:25;17.88;;;4.78;;
46717;SDS011;32448;44.960;-0.698;2022-11-15T17:51:54;28.85;;;6.43;;
46717;SDS011;32448;44.960;-0.698;2022-11-15T17:54:22;25.10;;;8.60;;
46717;SDS011;32448;44.960;-0.698;2022-11-15T17:56:52;25.55;;;10.10;;
46717;SDS011;32448;44.960;-0.698;2022-11-15T17:59:20;23.75;;;8.57;;
46717;SDS011;32448;44.960;-0.698;2022-11-15T18:01:53;22.13;;;9.20;;
46717;SDS011;32448;44.960;-0.698;2022-11-15T18:04:30;20.23;;;8.70;;
46717;SDS011;32448;44.960;-0.698;2022-11-15T18:07:10;19.13;;;7.47;;
46717;SDS011;32448;44.960;-0.698;2022-11-15T18:09:42;16.42;;;5.88;;
46717;SDS011;32448;44.960;-0.698;2022-11-15T18:12:15;16.83;;;4.60;;
46717;SDS011;32448;44.960;-0.698;2022-11-15T18:14:47;16.90;;;4.50;;
46717;SDS011;32448;44.960;-0.698;2022-11-15T18:17:16;16.27;;;4.90;;
46717;SDS011;32448;44.960;-0.698;2022-11-15T18:19:50;20.17;;;10.00;;
46717;SDS011;32448;44.960;-0.698;2022-11-15T18:22:20;26.98;;;11.05;;
46717;SDS011;32448;44.960;-0.698;2022-11-15T18:24:56;26.98;;;11.77;;